createdAt,value
2018-06-12T00:00:31.264Z,73.80
2018-06-12T00:02:59.911Z,74.00
2018-06-12T00:05:29.007Z,73.70
2018-06-12T00:07:57.561Z,73.70
2018-06-12T00:10:26.270Z,74.00
2018-06-12T00:12:54.837Z,73.80
2018-06-12T00:15:23.477Z,74.40
2018-06-12T00:17:52.082Z,74.00
2018-06-12T00:20:20.646Z,73.90
2018-06-12T00:22:49.298Z,74.00
2018-06-12T00:25:17.872Z,74.50
2018-06-12T00:27:46.415Z,73.80
2018-06-12T00:32:43.139Z,73.50
2018-06-12T00:35:11.759Z,73.10
2018-06-12T00:37:40.306Z,73.30
2018-06-12T00:40:08.880Z,73.60
2018-06-12T00:42:37.549Z,73.30
2018-06-12T00:45:06.234Z,73.70
2018-06-12T00:47:34.821Z,73.70
2018-06-12T00:50:03.364Z,73.80
2018-06-12T00:55:00.173Z,73.90
2018-06-12T00:57:28.774Z,74.70
2018-06-12T00:59:57.329Z,74.50
2018-06-12T01:02:26.040Z,74.90
2018-06-12T01:04:54.619Z,74.40
2018-06-12T01:07:23.215Z,74.40
2018-06-12T01:09:51.877Z,74.20
2018-06-12T01:12:20.452Z,74.10
2018-06-12T01:14:49.616Z,73.60
2018-06-12T01:17:18.289Z,73.60
2018-06-12T01:22:15.039Z,74.00
2018-06-12T01:24:43.661Z,74.10
2018-06-12T01:27:12.246Z,74.40
2018-06-12T01:29:40.874Z,74.50
2018-06-12T01:32:09.438Z,74.50
2018-06-12T01:34:37.995Z,74.40
2018-06-12T01:37:06.617Z,74.00
2018-06-12T01:39:35.923Z,73.70
2018-06-12T01:42:04.515Z,73.30
2018-06-12T01:44:33.254Z,73.40
2018-06-12T01:47:02.566Z,73.30
2018-06-12T01:49:31.079Z,73.00
2018-06-12T01:51:59.710Z,73.20
2018-06-12T01:54:28.277Z,73.30
2018-06-12T01:59:25.879Z,73.60
2018-06-12T02:01:54.468Z,73.50
2018-06-12T02:04:23.035Z,73.10
2018-06-12T02:06:51.785Z,73.50
2018-06-12T02:09:20.374Z,73.30
2018-06-12T02:11:48.904Z,73.50
2018-06-12T02:14:17.525Z,73.50
2018-06-12T02:16:46.053Z,74.30
2018-06-12T02:19:17.152Z,73.80
2018-06-12T02:21:47.847Z,73.70
2018-06-12T02:24:18.446Z,74.00
2018-06-12T02:26:48.435Z,74.40
2018-06-12T02:29:18.608Z,73.70
2018-06-12T02:31:50.650Z,73.20
2018-06-12T02:34:23.400Z,73.20
2018-06-12T02:36:56.772Z,73.50
2018-06-12T02:39:33.418Z,73.70
2018-06-12T02:42:06.937Z,73.70
2018-06-12T02:44:35.486Z,73.80
2018-06-12T02:49:35.461Z,74.00
2018-06-12T02:52:06.299Z,74.50
2018-06-12T02:54:35.472Z,74.10
2018-06-12T02:59:33.686Z,74.70
2018-06-12T03:02:06.527Z,74.40
2018-06-12T03:04:37.448Z,74.10
2018-06-12T03:07:09.373Z,74.00
2018-06-12T03:09:43.800Z,73.50
2018-06-12T03:12:12.984Z,73.40
2018-06-12T03:14:43.762Z,73.50
2018-06-12T03:17:16.123Z,73.50
2018-06-12T03:19:47.860Z,73.00
2018-06-12T03:22:16.943Z,72.90
2018-06-12T03:24:47.075Z,72.90
2018-06-12T03:27:18.604Z,73.20
2018-06-12T03:29:47.219Z,73.10
2018-06-12T03:32:16.963Z,72.90
2018-06-12T03:34:46.741Z,72.90
2018-06-12T03:37:17.944Z,73.40
2018-06-12T03:39:47.878Z,73.80
2018-06-12T03:42:20.178Z,74.20
2018-06-12T03:44:52.500Z,74.10
2018-06-12T03:47:21.785Z,73.30
2018-06-12T03:49:52.739Z,73.10
2018-06-12T03:52:25.055Z,73.00
2018-06-12T03:54:55.644Z,73.10
2018-06-12T03:57:24.757Z,73.10
2018-06-12T03:59:56.752Z,72.90
2018-06-12T04:02:25.940Z,73.30
2018-06-12T04:04:57.199Z,72.30
2018-06-12T04:07:26.951Z,72.20
2018-06-12T04:12:29.269Z,72.80
2018-06-12T04:14:59.969Z,72.50
2018-06-12T04:20:05.955Z,72.50
2018-06-12T04:22:35.535Z,72.00
2018-06-12T04:25:06.316Z,72.40
2018-06-12T04:27:36.828Z,72.20
2018-06-12T04:30:08.071Z,72.20
2018-06-12T04:32:37.324Z,72.10
2018-06-12T04:35:07.696Z,72.20
2018-06-12T04:40:09.567Z,72.80
2018-06-12T04:42:40.679Z,72.80
2018-06-12T04:45:11.696Z,72.80
2018-06-12T04:47:40.870Z,72.50
2018-06-12T04:50:11.531Z,72.20
2018-06-12T04:52:40.029Z,72.30
2018-06-12T04:55:13.290Z,72.20
2018-06-12T04:57:46.081Z,72.00
2018-06-12T05:00:15.303Z,71.90
2018-06-12T05:02:45.424Z,72.00
2018-06-12T05:05:14.711Z,72.10
2018-06-12T05:07:46.462Z,72.30
2018-06-12T05:10:15.839Z,71.90
2018-06-12T05:12:45.080Z,72.30
2018-06-12T05:15:18.334Z,72.40
2018-06-12T05:17:49.567Z,72.50
2018-06-12T05:20:19.572Z,72.60
2018-06-12T05:22:48.532Z,72.50
2018-06-12T05:25:20.630Z,71.90
2018-06-12T05:27:50.867Z,71.80
2018-06-12T05:30:21.244Z,71.60
2018-06-12T05:32:51.863Z,72.20
2018-06-12T05:35:23.686Z,72.10
2018-06-12T05:37:53.066Z,72.00
2018-06-12T05:42:52.055Z,70.30
2018-06-12T05:45:23.407Z,70.50
2018-06-12T05:47:55.262Z,70.70
2018-06-12T05:50:26.768Z,71.10
2018-06-12T05:52:56.357Z,70.80
2018-06-12T05:55:26.087Z,69.90
2018-06-12T05:57:56.201Z,70.10
2018-06-12T06:00:26.261Z,70.20
2018-06-12T06:02:57.196Z,69.30
2018-06-12T06:05:27.336Z,68.70
2018-06-12T06:08:00.431Z,68.20
2018-06-12T06:10:31.105Z,68.00
2018-06-12T06:13:01.850Z,68.40
2018-06-12T06:15:32.433Z,68.50
2018-06-12T06:18:02.076Z,68.50
2018-06-12T06:20:36.173Z,68.40
2018-06-12T06:23:05.133Z,68.40
2018-06-12T06:25:36.298Z,68.30
2018-06-12T06:28:05.583Z,68.20
2018-06-12T06:30:35.191Z,68.30
2018-06-12T06:33:05.562Z,68.50
2018-06-12T06:35:35.138Z,67.90
2018-06-12T06:38:08.303Z,67.40
2018-06-12T06:40:42.473Z,67.50
2018-06-12T06:43:11.715Z,67.40
2018-06-12T06:45:42.449Z,67.40
2018-06-12T06:48:13.794Z,67.10
2018-06-12T06:50:48.672Z,67.40
2018-06-12T06:53:22.312Z,67.70
2018-06-12T06:55:53.947Z,67.90
2018-06-12T06:58:24.055Z,68.20
2018-06-12T07:00:52.901Z,68.10
2018-06-12T07:03:23.547Z,68.60
2018-06-12T07:05:52.815Z,68.70
2018-06-12T07:08:23.068Z,68.60
2018-06-12T07:10:52.863Z,68.40
2018-06-12T07:13:23.447Z,68.70
2018-06-12T07:15:52.484Z,68.60
2018-06-12T07:18:23.122Z,67.50
2018-06-12T07:21:00.273Z,67.30
2018-06-12T07:23:31.265Z,67.10
2018-06-12T07:26:03.539Z,67.20
2018-06-12T07:28:34.828Z,67.10
2018-06-12T07:31:03.440Z,67.90
2018-06-12T07:33:33.687Z,67.30
2018-06-12T07:36:02.207Z,67.40
2018-06-12T07:38:31.512Z,67.50
2018-06-12T07:41:01.399Z,68.30
2018-06-12T07:43:30.975Z,68.40
2018-06-12T07:46:01.087Z,68.30
2018-06-12T07:48:32.144Z,67.70
2018-06-12T07:51:02.567Z,67.50
2018-06-12T07:53:31.923Z,66.60
2018-06-12T07:56:00.771Z,67.20
2018-06-12T07:58:31.139Z,67.10
2018-06-12T08:00:59.876Z,67.40
2018-06-12T08:03:30.712Z,67.50
2018-06-12T08:06:00.068Z,67.20
2018-06-12T08:08:31.142Z,67.30
2018-06-12T08:11:02.302Z,67.20
2018-06-12T08:13:34.255Z,66.70
2018-06-12T08:16:06.457Z,66.90
2018-06-12T08:18:35.274Z,67.30
2018-06-12T08:21:04.375Z,68.00
2018-06-12T08:23:34.122Z,67.20
2018-06-12T08:26:05.663Z,66.90
2018-06-12T08:28:36.016Z,67.00
2018-06-12T08:31:07.642Z,66.90
2018-06-12T08:33:38.757Z,66.90
2018-06-12T08:36:08.136Z,66.50
2018-06-12T08:38:37.061Z,66.30
2018-06-12T08:41:06.919Z,66.40
2018-06-12T08:43:37.627Z,66.40
2018-06-12T08:46:07.524Z,66.80
2018-06-12T08:48:37.118Z,65.90
2018-06-12T08:51:06.785Z,66.00
2018-06-12T08:53:40.373Z,67.10
2018-06-12T08:56:10.887Z,66.00
2018-06-12T08:58:41.172Z,66.70
2018-06-12T09:01:10.782Z,65.50
2018-06-12T09:03:40.108Z,66.10
2018-06-12T09:06:10.612Z,65.30
2018-06-12T09:08:40.164Z,65.00
2018-06-12T09:11:08.948Z,65.20
2018-06-12T09:13:39.375Z,65.90
2018-06-12T09:16:09.059Z,66.80
2018-06-12T09:18:40.943Z,65.30
2018-06-12T09:21:10.120Z,65.80
2018-06-12T09:23:40.523Z,66.20
2018-06-12T09:26:11.896Z,64.80
2018-06-12T09:28:47.379Z,67.20
2018-06-12T09:31:19.031Z,66.10
2018-06-12T09:33:50.307Z,65.00
2018-06-12T09:36:37.013Z,64.30
2018-06-12T09:39:09.410Z,65.50
2018-06-12T09:41:40.063Z,65.70
2018-06-12T09:44:09.260Z,64.80
2018-06-12T09:46:38.445Z,65.00
2018-06-12T09:49:09.588Z,65.30
2018-06-12T09:51:43.238Z,65.10
2018-06-12T09:54:11.907Z,62.80
2018-06-12T09:56:43.779Z,62.20
2018-06-12T10:01:44.773Z,63.00
2018-06-12T10:04:13.415Z,63.00
2018-06-12T10:06:45.697Z,65.70
2018-06-12T10:11:47.416Z,62.40
2018-06-12T10:14:17.847Z,63.30
2018-06-12T10:16:46.625Z,63.80
2018-06-12T10:19:15.921Z,62.80
2018-06-12T10:21:45.921Z,63.50
2018-06-12T10:24:18.921Z,63.90
2018-06-12T10:26:50.427Z,63.60
2018-06-12T10:29:21.170Z,64.10
2018-06-12T10:31:57.144Z,64.20
2018-06-12T10:34:27.314Z,65.50
2018-06-12T10:36:58.604Z,65.60
2018-06-12T10:39:28.987Z,64.10
2018-06-12T10:41:59.407Z,64.10
2018-06-12T10:44:31.811Z,65.10
2018-06-12T10:47:01.515Z,65.90
2018-06-12T10:49:32.654Z,65.00
2018-06-12T10:52:03.361Z,63.40
2018-06-12T10:54:34.776Z,64.90
2018-06-12T10:57:07.049Z,64.40
2018-06-12T10:59:37.987Z,66.20
2018-06-12T11:02:08.801Z,65.00
2018-06-12T11:04:39.081Z,66.20
2018-06-12T11:09:39.379Z,62.60
2018-06-12T11:12:09.921Z,62.40
2018-06-12T11:14:41.987Z,64.10
2018-06-12T11:17:13.025Z,62.70
2018-06-12T11:19:44.062Z,64.90
2018-06-12T11:22:17.607Z,64.40
2018-06-12T11:24:46.700Z,65.20
2018-06-12T11:29:46.956Z,65.70
2018-06-12T11:32:16.412Z,65.50
2018-06-12T11:34:45.779Z,64.20
2018-06-12T11:37:14.963Z,63.00
2018-06-12T11:39:46.707Z,62.10
2018-06-12T11:42:16.940Z,61.90
2018-06-12T11:44:47.766Z,63.70
2018-06-12T11:47:18.702Z,62.90
2018-06-12T11:52:19.307Z,62.90
2018-06-12T11:54:50.638Z,62.80
2018-06-12T11:57:19.286Z,63.10
2018-06-12T11:59:48.986Z,64.70
2018-06-12T12:02:19.386Z,63.10
2018-06-12T12:04:53.340Z,62.50
2018-06-12T12:07:22.436Z,63.70
2018-06-12T12:09:53.274Z,63.80
2018-06-12T12:12:26.932Z,63.70
2018-06-12T12:14:56.847Z,62.70
2018-06-12T12:17:28.489Z,62.40
2018-06-12T12:20:00.840Z,61.70
2018-06-12T12:22:30.990Z,60.20
2018-06-12T12:25:00.163Z,61.40
2018-06-12T12:27:29.946Z,61.60
2018-06-12T12:30:03.267Z,61.30
2018-06-12T12:32:32.083Z,62.20
2018-06-12T12:35:01.852Z,62.30
2018-06-12T12:37:31.099Z,63.20
2018-06-12T12:40:02.129Z,63.60
2018-06-12T12:42:32.832Z,63.80
2018-06-12T12:45:01.410Z,61.70
2018-06-12T12:47:33.161Z,62.40
2018-06-12T12:50:02.738Z,61.40
2018-06-12T12:52:33.035Z,60.80
2018-06-12T12:55:06.960Z,61.60
2018-06-12T12:57:36.262Z,59.50
2018-06-12T13:00:06.104Z,62.10
2018-06-12T13:02:35.181Z,59.60
2018-06-12T13:05:03.922Z,59.70
2018-06-12T13:07:38.606Z,59.50
2018-06-12T13:10:10.710Z,59.50
2018-06-12T13:12:41.407Z,61.10
2018-06-12T13:15:11.624Z,59.00
2018-06-12T13:17:42.360Z,59.80
2018-06-12T13:20:14.635Z,60.30
2018-06-12T13:22:45.310Z,60.20
2018-06-12T13:25:14.661Z,59.00
2018-06-12T13:27:46.265Z,59.20
2018-06-12T13:30:17.023Z,56.40
2018-06-12T13:32:49.810Z,55.30
2018-06-12T13:35:18.419Z,55.30
2018-06-12T13:37:52.711Z,56.80
2018-06-12T13:40:21.925Z,56.50
2018-06-12T13:42:53.617Z,56.20
2018-06-12T13:45:22.348Z,57.00
2018-06-12T13:47:53.169Z,56.90
2018-06-12T13:50:25.104Z,57.30
2018-06-12T13:52:57.046Z,57.70
2018-06-12T13:55:27.294Z,58.30
2018-06-12T13:57:57.647Z,58.90
2018-06-12T14:00:26.422Z,59.50
2018-06-12T14:02:57.881Z,60.00
2018-06-12T14:05:28.814Z,60.40
2018-06-12T14:07:58.838Z,61.70
2018-06-12T14:10:30.234Z,62.00
2018-06-12T14:15:33.434Z,62.90
2018-06-12T14:18:04.524Z,63.50
2018-06-12T14:20:34.917Z,64.80
2018-06-12T14:23:03.462Z,64.20
2018-06-12T14:25:34.098Z,64.90
2018-06-12T14:28:04.610Z,65.10
2018-06-12T14:30:35.875Z,65.00
2018-06-12T14:33:09.033Z,64.30
2018-06-12T14:35:37.984Z,63.70
2018-06-12T14:38:10.099Z,63.90
2018-06-12T14:40:44.328Z,64.00
2018-06-12T14:43:15.383Z,64.60
2018-06-12T14:45:51.822Z,65.90
2018-06-12T14:48:22.000Z,65.50
2018-06-12T14:50:55.944Z,65.20
2018-06-12T14:53:27.713Z,65.30
2018-06-12T14:55:57.144Z,65.50
2018-06-12T14:58:29.684Z,66.20
2018-06-12T15:01:01.710Z,66.40
2018-06-12T15:06:03.587Z,68.50
2018-06-12T15:08:34.684Z,69.70
2018-06-12T15:11:05.315Z,70.00
2018-06-12T15:13:35.968Z,71.10
2018-06-12T15:16:04.651Z,70.70
2018-06-12T15:18:34.849Z,70.70
2018-06-12T15:21:03.791Z,70.60
2018-06-12T15:26:02.617Z,70.40
2018-06-12T15:28:33.604Z,71.40
2018-06-12T15:31:05.205Z,71.70
2018-06-12T15:33:36.096Z,71.70
2018-06-12T15:36:04.883Z,72.00
2018-06-12T15:38:35.379Z,71.60
2018-06-12T15:41:05.095Z,71.20
2018-06-12T15:43:35.092Z,71.80
2018-06-12T15:46:03.783Z,71.80
2018-06-12T15:48:33.194Z,71.60
2018-06-12T15:51:03.969Z,71.30
2018-06-12T15:53:35.760Z,71.90
2018-06-12T15:58:38.459Z,71.00
2018-06-12T16:01:07.245Z,71.40
2018-06-12T16:03:45.474Z,71.60
2018-06-12T16:06:14.814Z,71.40
2018-06-12T16:08:44.009Z,71.00
2018-06-12T16:11:13.731Z,71.20
2018-06-12T16:13:46.093Z,71.00
2018-06-12T16:16:18.263Z,71.00
2018-06-12T16:18:46.912Z,70.80
2018-06-12T16:21:17.373Z,70.60
2018-06-12T16:23:47.617Z,69.80
2018-06-12T16:26:18.814Z,70.20
2018-06-12T16:28:48.849Z,70.50
2018-06-12T16:31:18.775Z,70.60
2018-06-12T16:33:48.910Z,70.80
2018-06-12T16:36:19.356Z,70.50
2018-06-12T16:38:48.615Z,70.70
2018-06-12T16:41:18.024Z,70.60
2018-06-12T16:43:47.297Z,71.50
2018-06-12T16:46:17.070Z,71.30
2018-06-12T16:48:50.211Z,71.60
2018-06-12T16:51:18.762Z,70.90
2018-06-12T16:53:51.296Z,71.30
2018-06-12T16:56:22.309Z,71.10
2018-06-12T16:58:51.948Z,70.50
2018-06-12T17:01:20.848Z,70.70
2018-06-12T17:03:49.487Z,71.80
2018-06-12T17:06:20.053Z,72.70
2018-06-12T17:08:48.704Z,71.80
2018-06-12T17:11:20.052Z,71.90
2018-06-12T17:13:49.411Z,71.60
2018-06-12T17:16:18.076Z,71.40
2018-06-12T17:18:47.322Z,71.70
2018-06-12T17:21:16.781Z,73.20
2018-06-12T17:23:49.426Z,73.30
2018-06-12T17:26:22.141Z,74.50
2018-06-12T17:28:50.687Z,74.60
2018-06-12T17:31:23.383Z,75.00
2018-06-12T17:36:27.596Z,75.10
2018-06-12T17:38:56.148Z,74.50
2018-06-12T17:41:25.099Z,75.00
2018-06-12T17:43:55.748Z,74.90
2018-06-12T17:46:26.685Z,74.90
2018-06-12T17:48:57.509Z,74.70
2018-06-12T17:51:28.175Z,75.90
2018-06-12T17:53:57.744Z,74.50
2018-06-12T17:56:31.290Z,74.10
2018-06-12T17:59:03.769Z,73.50
2018-06-12T18:01:37.935Z,73.70
2018-06-12T18:04:08.698Z,73.20
2018-06-12T18:06:40.692Z,71.80
2018-06-12T18:09:11.927Z,71.10
2018-06-12T18:11:41.931Z,71.00
2018-06-12T18:14:13.695Z,71.10
2018-06-12T18:16:42.985Z,70.90
2018-06-12T18:21:42.843Z,71.20
2018-06-12T18:26:41.787Z,69.90
2018-06-12T18:29:13.271Z,69.50
2018-06-12T18:31:44.756Z,69.30
2018-06-12T18:34:14.986Z,69.50
2018-06-12T18:36:45.950Z,69.70
2018-06-12T18:39:15.559Z,69.30
2018-06-12T18:41:45.720Z,69.10
2018-06-12T18:44:15.139Z,69.40
2018-06-12T18:49:15.856Z,69.50
2018-06-12T18:51:44.484Z,69.20
2018-06-12T18:54:14.758Z,69.70
2018-06-12T18:56:44.660Z,70.00
2018-06-12T18:59:15.622Z,70.80
2018-06-12T19:01:44.800Z,70.80
2018-06-12T19:04:15.957Z,70.90
2018-06-12T19:06:46.454Z,70.50
2018-06-12T19:09:17.251Z,70.30
2018-06-12T19:11:49.864Z,70.20
2018-06-12T19:14:18.434Z,70.10
2018-06-12T19:16:52.597Z,70.10
2018-06-12T19:19:26.103Z,69.90
2018-06-12T19:21:57.729Z,70.20
2018-06-12T19:24:27.870Z,70.50
2018-06-12T19:26:59.317Z,70.30
2018-06-12T19:29:27.859Z,70.30
2018-06-12T19:31:58.894Z,70.30
2018-06-12T19:34:31.268Z,69.60
2018-06-12T19:37:02.970Z,70.20
2018-06-12T19:39:31.591Z,70.50
2018-06-12T19:42:00.135Z,70.50
2018-06-12T19:44:32.506Z,70.10
2018-06-12T19:47:03.959Z,69.90
2018-06-12T19:49:35.368Z,69.90
2018-06-12T19:52:04.850Z,70.50
2018-06-12T19:54:34.326Z,70.70
2018-06-12T19:57:09.215Z,70.50
2018-06-12T19:59:38.815Z,70.20
2018-06-12T20:02:12.124Z,70.20
2018-06-12T20:04:41.446Z,70.40
2018-06-12T20:07:11.439Z,70.10
2018-06-12T20:09:40.847Z,70.00
2018-06-12T20:12:12.890Z,70.10
2018-06-12T20:14:44.516Z,69.90
2018-06-12T20:17:15.737Z,69.80
2018-06-12T20:19:47.540Z,70.30
2018-06-12T20:22:17.333Z,69.40
2018-06-12T20:24:46.556Z,69.20
2018-06-12T20:27:19.044Z,69.00
2018-06-12T20:29:49.366Z,69.20
2018-06-12T20:32:19.936Z,69.50
2018-06-12T20:34:50.058Z,69.20
2018-06-12T20:37:21.967Z,68.80
2018-06-12T20:39:52.405Z,68.70
2018-06-12T20:44:51.267Z,69.00
2018-06-12T20:47:23.417Z,68.70
2018-06-12T20:49:54.717Z,68.50
2018-06-12T20:52:27.432Z,68.70
2018-06-12T20:54:58.077Z,68.60
2018-06-12T20:57:30.396Z,68.40
2018-06-12T21:02:29.025Z,68.40
2018-06-12T21:05:02.640Z,68.80
2018-06-12T21:07:33.568Z,68.30
2018-06-12T21:10:03.900Z,68.20
2018-06-12T21:12:38.551Z,68.40
2018-06-12T21:15:09.187Z,68.70
2018-06-12T21:17:39.124Z,69.10
2018-06-12T21:20:08.491Z,68.70
2018-06-12T21:22:39.471Z,68.90
2018-06-12T21:25:11.529Z,69.60
2018-06-12T21:27:45.976Z,69.20
2018-06-12T21:30:14.770Z,68.30
2018-06-12T21:32:43.879Z,68.90
2018-06-12T21:35:12.918Z,68.70
2018-06-12T21:37:41.427Z,68.30
2018-06-12T21:40:12.282Z,68.40
2018-06-12T21:42:46.375Z,67.60
2018-06-12T21:45:17.065Z,67.20
2018-06-12T21:47:48.493Z,67.40
2018-06-12T21:50:24.788Z,67.10
2018-06-12T21:52:59.429Z,66.40
2018-06-12T21:55:34.518Z,66.20
2018-06-12T21:58:07.535Z,65.50
2018-06-12T22:00:37.920Z,66.00
2018-06-12T22:05:37.410Z,65.20
2018-06-12T22:08:06.826Z,64.80
2018-06-12T22:10:38.868Z,65.10
2018-06-12T22:13:08.948Z,64.50
2018-06-12T22:15:39.409Z,64.30
2018-06-12T22:18:10.644Z,63.90
2018-06-12T22:20:43.255Z,63.90
2018-06-12T22:23:13.203Z,64.10
2018-06-12T22:25:43.429Z,64.50
2018-06-12T22:28:12.703Z,64.50
2018-06-12T22:30:44.161Z,63.80
2018-06-12T22:33:13.538Z,63.70
2018-06-12T22:35:43.320Z,63.50
2018-06-12T22:38:19.603Z,63.10
2018-06-12T22:40:48.843Z,63.80
2018-06-12T22:43:21.271Z,63.00
2018-06-12T22:45:51.594Z,62.90
2018-06-12T22:48:25.410Z,62.20
2018-06-12T22:50:57.102Z,62.40
2018-06-12T22:55:55.277Z,63.80
2018-06-12T22:58:25.827Z,63.50
2018-06-12T23:00:55.708Z,64.30
2018-06-12T23:03:27.667Z,64.00
2018-06-12T23:05:59.527Z,64.50
2018-06-12T23:08:29.912Z,64.00
2018-06-12T23:11:01.293Z,64.00
2018-06-12T23:13:33.527Z,63.70
2018-06-12T23:16:04.804Z,64.40
2018-06-12T23:18:35.016Z,65.30
2018-06-12T23:21:21.451Z,66.60
2018-06-12T23:23:50.696Z,66.00
2018-06-12T23:26:20.870Z,67.40
2018-06-12T23:28:51.096Z,68.30
2018-06-12T23:31:21.931Z,69.30
2018-06-12T23:33:57.684Z,68.20
2018-06-12T23:36:28.262Z,69.50
2018-06-12T23:38:57.922Z,69.80
2018-06-12T23:41:30.468Z,70.10
2018-06-12T23:43:59.123Z,69.10
2018-06-12T23:46:30.586Z,70.40
2018-06-12T23:49:00.931Z,70.50
2018-06-12T23:51:30.577Z,71.30
2018-06-12T23:54:00.671Z,72.40
2018-06-12T23:56:30.062Z,71.80
2018-06-12T23:59:01.114Z,72.00
